KRCA/RCA METAR and TAF weather

Enter ICAO airport designator
Station Type Date Time Source
KRCA METAR 2020/07/11 00:56 UTC NOAA

KRCA 110056Z AUTO 20005KT 10SM CLR 24/14 A3001 RMK AO2 SLP142 T02410139 $


Station Type Date Time Source
KRCA Decoded METAR 2020/07/11 00:56 UTC NOAA

Ellsworth Air Force Base, SD, United States (KRCA) 44-09N 103-06W
Jul 10, 2020 - 08:56 PM EDT / 2020.07.11 0056 UTC
Wind: from the SSW (200 degrees) at 6 MPH (5 KT):0
Visibility: 10 mile(s):0
Sky conditions: clear
Temperature: 75.4 F (24.1 C)
Dew Point: 57.0 F (13.9 C)
Relative Humidity: 52%
Pressure (altimeter): 30.01 in. Hg (1016 hPa)
ob: KRCA 110056Z AUTO 20005KT 10SM CLR 24/14 A3001 RMK AO2 SLP142 T02410139
cycle: 1

Station Type Date Time Source
KRCA TAF 2020/07/10 23:58 UTC NOAA

TAF
AMD KRCA 102348Z 1023/1201 17010G20KT 9999 FEW120 QNH2990INS
BECMG 1101/1102 32015G25KT 9999 BKN060 QNH3004INS
BECMG 1108/1109 31009KT 9999 SKC QNH3016INS
BECMG 1117/1118 30010G20KT 9999 SKC QNH3016INS
BECMG 1123/1124 35006KT 9999 SKC QNH3012INS TX33/1023Z TN15/1111Z LAST NO
AMDS AFT 1023 NEXT 1311

Example: see airport list